Schneifelwetter: Wetterstation Hallschlag, 537 m . NN
Wetterdaten: Freitag, 13.03.2009
Datum Zeit Temp. A. Temp. 2 Feuchte A. Luftdruck Regen Wind Richtung Richtung Sonnenschein Helligkeit T Regen Taupunkt Windchill
13.03.2009 00:01 5,3 C 5,1 C 99 % 1017 hPa 0,0 l/m 16,1 km/h (3 Bft) W22.5 260 0 min 0 lux 0,00 min 5,2 C -1,1 C
13.03.2009 00:16 5,3 C 5,1 C 99 % 1017 hPa 3,0 l/m 14,3 km/h (3 Bft) W22.5 265 0 min 0 lux 15,00 min 5,2 C -0,2 C
13.03.2009 00:31 5,3 C 5,2 C 99 % 1017 hPa 0,3 l/m 21,0 km/h (4 Bft) W22.5 260 0 min 0 lux 15,00 min 5,2 C -3,2 C
13.03.2009 00:46 5,5 C 5,3 C 99 % 1017 hPa 0,0 l/m 19,0 km/h (3 Bft) W22.5 265 0 min 0 lux 0,00 min 5,4 C -2,1 C
13.03.2009 01:01 5,6 C 5,3 C 99 % 1017 hPa 0,0 l/m 18,2 km/h (3 Bft) W22.5 265 0 min 0 lux 0,00 min 5,5 C -1,7 C
13.03.2009 01:16 5,6 C 5,3 C 99 % 1017 hPa 0,0 l/m 20,6 km/h (4 Bft) W67.5 260 0 min 0 lux 0,00 min 5,5 C -2,6 C
13.03.2009 01:31 5,5 C 5,2 C 99 % 1017 hPa 0,0 l/m 18,6 km/h (3 Bft) W-SW22.5 255 0 min 0 lux 0,00 min 5,4 C -2,0 C
13.03.2009 01:46 5,5 C 5,2 C 99 % 1017 hPa 0,0 l/m 25,1 km/h (4 Bft) W45 260 0 min 0 lux 0,00 min 5,4 C -4,3 C
13.03.2009 02:01 5,5 C 5,3 C 99 % 1017 hPa 0,0 l/m 25,5 km/h (4 Bft) W22.5 265 0 min 0 lux 0,00 min 5,4 C -4,4 C
13.03.2009 02:16 5,6 C 5,4 C 99 % 1017 hPa 0,0 l/m 17,0 km/h (3 Bft) W22.5 265 0 min 0 lux 0,00 min 5,5 C -1,1 C
13.03.2009 02:31 5,5 C 5,3 C 99 % 1017 hPa 0,0 l/m 8,2 km/h (2 Bft) W22.5 280 0 min 0 lux 0,00 min 5,4 C 4,0 C
13.03.2009 02:46 5,4 C 5,3 C 99 % 1017 hPa 0,0 l/m 11,2 km/h (2 Bft) W22.5 270 0 min 0 lux 0,00 min 5,3 C 1,7 C
13.03.2009 03:01 5,4 C 5,2 C 99 % 1017 hPa 0,0 l/m 13,3 km/h (3 Bft) W22.5 270 0 min 0 lux 0,00 min 5,3 C 0,5 C
13.03.2009 03:16 5,3 C 5,1 C 99 % 1017 hPa 0,0 l/m 8,3 km/h (2 Bft) W 260 0 min 0 lux 0,00 min 5,2 C 3,7 C
13.03.2009 03:31 5,2 C 5,1 C 99 % 1017 hPa 0,0 l/m 11,0 km/h (2 Bft) W22.5 260 0 min 0 lux 0,00 min 5,1 C 1,6 C
13.03.2009 03:46 5,2 C 5,0 C 99 % 1017 hPa 0,3 l/m 9,5 km/h (2 Bft) W-SW22.5 255 0 min 0 lux 15,00 min 5,1 C 2,7 C
13.03.2009 04:01 5,2 C 5,0 C 99 % 1017 hPa 0,0 l/m 8,8 km/h (2 Bft) W-SW 250 0 min 0 lux 0,00 min 5,1 C 3,2 C
13.03.2009 04:16 5,2 C 5,0 C 99 % 1017 hPa 0,0 l/m 9,8 km/h (2 Bft) W-SW22.5 250 0 min 0 lux 0,00 min 5,1 C 2,4 C
13.03.2009 04:31 5,2 C 4,8 C 99 % 1018 hPa 0,0 l/m 8,9 km/h (2 Bft) W67.5 275 0 min 0 lux 0,00 min 5,1 C 3,1 C
13.03.2009 04:46 4,7 C 4,3 C 98 % 1018 hPa 0,0 l/m 8,9 km/h (2 Bft) N-NW22.5 340 0 min 0 lux 0,00 min 4,4 C 2,6 C
13.03.2009 05:01 4,2 C 3,5 C 98 % 1018 hPa 0,0 l/m 7,6 km/h (2 Bft) W22.5 270 0 min 0 lux 0,00 min 3,9 C 3,1 C
13.03.2009 05:16 3,8 C 3,0 C 98 % 1018 hPa 0,0 l/m 12,2 km/h (2 Bft) W-SW 255 0 min 0 lux 0,00 min 3,5 C -0,8 C
13.03.2009 05:31 3,4 C 2,6 C 98 % 1018 hPa 0,0 l/m 7,0 km/h (2 Bft) W-SW 255 0 min 0 lux 0,00 min 3,1 C 2,8 C
13.03.2009 05:46 3,2 C 2,4 C 99 % 1018 hPa 0,0 l/m 6,0 km/h (2 Bft) W-SW 255 0 min 0 lux 0,00 min 3,1 C 3,2 C
13.03.2009 06:01 3,1 C 2,2 C 99 % 1018 hPa 0,0 l/m 3,9 km/h (1 Bft) W-SW 255 0 min 0 lux 0,00 min 3,0 C 3,1 C
13.03.2009 06:16 2,7 C 1,9 C 98 % 1018 hPa 0,0 l/m 4,8 km/h (1 Bft) W-SW 255 0 min 0 lux 0,00 min 2,4 C 2,7 C
13.03.2009 06:31 2,9 C 1,8 C 99 % 1018 hPa 0,0 l/m 6,3 km/h (2 Bft) W-SW 255 0 min 0 lux 0,00 min 2,8 C 2,9 C
13.03.2009 06:46 2,7 C 1,6 C 98 % 1018 hPa 0,0 l/m 3,3 km/h (1 Bft) W-SW 255 0 min 166 lux 0,00 min 2,4 C 2,7 C
13.03.2009 07:01 2,3 C 1,4 C 98 % 1018 hPa 0,0 l/m 3,4 km/h (1 Bft) W-SW 255 0 min 563 lux 0,00 min 2,0 C 2,3 C
13.03.2009 07:16 2,2 C 1,4 C 99 % 1019 hPa 0,0 l/m 0,0 km/h (0 Bft) W-SW 255 0 min 1,50 klux 0,00 min 2,1 C 2,2 C
13.03.2009 07:31 2,2 C 1,4 C 99 % 1019 hPa 0,0 l/m 0,0 km/h (0 Bft) W-SW 255 0 min 5,20 klux 0,00 min 2,1 C 2,2 C
13.03.2009 07:46 2,3 C 1,6 C 99 % 1019 hPa 0,0 l/m 0,0 km/h (0 Bft) W-SW 255 0 min 7,12 klux 0,00 min 2,2 C 2,3 C
13.03.2009 08:01 2,7 C 1,9 C 99 % 1019 hPa 0,0 l/m 5,4 km/h (1 Bft) W-SW 255 0 min 14,1 klux 0,00 min 2,6 C 2,7 C
13.03.2009 08:16 3,1 C 2,4 C 99 % 1019 hPa 0,0 l/m 2,5 km/h (1 Bft) W-SW 255 0 min 21,3 klux 0,00 min 3,0 C 3,1 C
13.03.2009 08:31 4,1 C 3,5 C 99 % 1019 hPa 0,0 l/m 8,5 km/h (2 Bft) W-SW 255 0 min 23,8 klux 0,00 min 4,0 C 2,2 C
13.03.2009 08:46 4,5 C 4,2 C 99 % 1019 hPa 0,0 l/m 9,8 km/h (2 Bft) W-SW 255 0 min 15,9 klux 0,00 min 4,4 C 1,7 C
13.03.2009 09:01 4,8 C 4,6 C 99 % 1019 hPa 0,0 l/m 5,2 km/h (1 Bft) W-SW 255 0 min 13,3 klux 0,00 min 4,7 C 4,8 C
13.03.2009 09:16 5,2 C 5,0 C 98 % 1019 hPa 0,0 l/m 4,6 km/h (1 Bft) W-SW 255 0 min 22,0 klux 0,00 min 4,9 C 5,2 C
13.03.2009 09:31 5,4 C 5,4 C 97 % 1020 hPa 0,0 l/m 11,2 km/h (2 Bft) W 260 15 min 28,6 klux 0,00 min 5,0 C 1,7 C
13.03.2009 09:46 5,9 C 6,5 C 95 % 1019 hPa 0,0 l/m 21,0 km/h (4 Bft) W-SW22.5 250 15 min 38,7 klux 0,00 min 5,2 C -2,4 C
13.03.2009 10:01 6,4 C 7,2 C 95 % 1019 hPa 0,0 l/m 16,3 km/h (3 Bft) W22.5 260 15 min 37,5 klux 0,00 min 5,7 C 0,2 C
13.03.2009 10:16 7,1 C 7,6 C 95 % 1020 hPa 0,0 l/m 13,1 km/h (3 Bft) W-SW22.5 250 15 min 32,8 klux 0,00 min 6,4 C 2,6 C
13.03.2009 10:31 6,9 C 7,9 C 90 % 1020 hPa 0,0 l/m 15,1 km/h (3 Bft) W22.5 265 15 min 60,5 klux 0,00 min 5,4 C 1,3 C
13.03.2009 10:46 7,6 C 9,6 C 91 % 1020 hPa 0,0 l/m 19,0 km/h (3 Bft) W-SW22.5 250 15 min 60,0 klux 0,00 min 6,2 C 0,6 C
13.03.2009 11:01 8,0 C 10,5 C 85 % 1020 hPa 0,0 l/m 17,7 km/h (3 Bft) W45 265 15 min 54,6 klux 0,00 min 5,6 C 1,6 C
13.03.2009 11:16 7,8 C 10,2 C 86 % 1020 hPa 0,0 l/m 18,5 km/h (3 Bft) W22.5 265 15 min 46,1 klux 0,00 min 5,6 C 1,0 C
13.03.2009 11:31 8,0 C 10,3 C 84 % 1020 hPa 0,0 l/m 19,6 km/h (3 Bft) W-SW22.5 250 15 min 57,5 klux 0,00 min 5,5 C 0,8 C
13.03.2009 11:46 8,3 C 10,8 C 85 % 1020 hPa 0,0 l/m 14,8 km/h (3 Bft) W-SW22.5 250 15 min 52,5 klux 0,00 min 5,9 C 3,2 C
13.03.2009 12:01 8,6 C 11,3 C 82 % 1020 hPa 0,0 l/m 14,6 km/h (3 Bft) W-SW22.5 255 15 min 61,1 klux 0,00 min 5,7 C 3,6 C
13.03.2009 12:16 9,1 C 12,1 C 82 % 1020 hPa 0,0 l/m 15,9 km/h (3 Bft) W22.5 260 15 min 62,6 klux 0,00 min 6,2 C 3,7 C
13.03.2009 12:31 9,1 C 11,9 C 81 % 1020 hPa 0,0 l/m 19,0 km/h (3 Bft) W22.5 260 15 min 52,9 klux 0,00 min 6,0 C 2,5 C
13.03.2009 12:46 9,2 C 12,0 C 79 % 1020 hPa 0,0 l/m 16,5 km/h (3 Bft) W22.5 265 15 min 53,1 klux 0,00 min 5,8 C 3,5 C
13.03.2009 13:00 9,4 C 12,2 C 75 % 1020 hPa 0,0 l/m 14,6 km/h (3 Bft) W22.5 260 14 min 49,5 klux 0,00 min 5,2 C 4,6 C
13.03.2009 13:16 9,6 C 12,1 C 75 % 1020 hPa 0,0 l/m 18,5 km/h (3 Bft) W-SW22.5 250 16 min 51,6 klux 0,00 min 5,4 C 3,3 C
13.03.2009 13:31 10,0 C 13,4 C 74 % 1019 hPa 0,0 l/m 15,8 km/h (3 Bft) W22.5 265 15 min 63,5 klux 0,00 min 5,6 C 4,8 C
13.03.2009 13:46 10,3 C 13,4 C 75 % 1020 hPa 0,0 l/m 15,6 km/h (3 Bft) W-SW22.5 250 15 min 61,8 klux 0,00 min 6,1 C 5,3 C
13.03.2009 14:01 10,4 C 13,5 C 73 % 1019 hPa 0,0 l/m 13,0 km/h (3 Bft) W-SW22.5 250 15 min 66,7 klux 0,00 min 5,8 C 6,5 C
13.03.2009 14:16 10,4 C 13,2 C 72 % 1019 hPa 0,0 l/m 16,3 km/h (3 Bft) W22.5 260 15 min 63,6 klux 0,00 min 5,6 C 5,1 C
13.03.2009 14:31 10,5 C 14,0 C 72 % 1019 hPa 0,0 l/m 15,1 km/h (3 Bft) W-SW 250 15 min 62,5 klux 0,00 min 5,7 C 5,7 C
13.03.2009 14:46 10,0 C 13,8 C 68 % 1019 hPa 0,0 l/m 13,0 km/h (3 Bft) W-NW67.5 295 15 min 48,2 klux 0,00 min 4,4 C 6,0 C
13.03.2009 15:01 9,5 C 13,4 C 70 % 1019 hPa 0,0 l/m 14,7 km/h (3 Bft) SW45 225 15 min 38,7 klux 0,00 min 4,3 C 4,7 C
13.03.2009 15:16 9,8 C 12,3 C 71 % 1019 hPa 0,0 l/m 16,1 km/h (3 Bft) W-SW22.5 250 15 min 36,7 klux 0,00 min 4,8 C 4,4 C
13.03.2009 15:31 9,6 C 11,5 C 69 % 1019 hPa 0,0 l/m 17,5 km/h (3 Bft) W-SW22.5 255 0 min 26,4 klux 0,00 min 4,2 C 3,6 C
13.03.2009 15:46 9,2 C 10,6 C 69 % 1019 hPa 0,0 l/m 13,3 km/h (3 Bft) W22.5 265 0 min 21,2 klux 0,00 min 3,8 C 4,9 C
13.03.2009 16:01 9,1 C 10,4 C 69 % 1019 hPa 0,0 l/m 13,1 km/h (3 Bft) W22.5 270 0 min 21,1 klux 0,00 min 3,7 C 4,9 C
13.03.2009 16:16 9,2 C 10,5 C 71 % 1019 hPa 0,0 l/m 11,1 km/h (2 Bft) W-SW22.5 245 0 min 23,9 klux 0,00 min 4,2 C 6,1 C
13.03.2009 16:31 9,4 C 11,1 C 72 % 1019 hPa 0,0 l/m 11,3 km/h (2 Bft) W-SW22.5 255 15 min 28,7 klux 0,00 min 4,6 C 6,2 C
13.03.2009 16:45 9,3 C 10,7 C 69 % 1019 hPa 0,0 l/m 13,1 km/h (3 Bft) W-SW22.5 255 0 min 25,4 klux 0,00 min 3,9 C 5,2 C
13.03.2009 17:01 9,0 C 9,8 C 71 % 1019 hPa 0,0 l/m 11,1 km/h (2 Bft) W 260 0 min 17,5 klux 0,00 min 4,0 C 5,9 C
13.03.2009 17:16 9,0 C 10,5 C 71 % 1019 hPa 0,0 l/m 12,0 km/h (2 Bft) W-SW 240 0 min 24,3 klux 0,00 min 4,0 C 5,4 C
13.03.2009 17:31 8,7 C 10,1 C 71 % 1018 hPa 0,0 l/m 11,9 km/h (2 Bft) W-SW 245 0 min 20,8 klux 0,00 min 3,7 C 5,1 C
13.03.2009 17:46 8,2 C 9,8 C 72 % 1018 hPa 0,0 l/m 8,5 km/h (2 Bft) W-SW 250 0 min 13,4 klux 0,00 min 3,5 C 6,6 C
13.03.2009 18:01 7,5 C 8,2 C 74 % 1018 hPa 0,0 l/m 6,1 km/h (2 Bft) W-SW 250 0 min 7,82 klux 0,00 min 3,2 C 7,5 C
13.03.2009 18:16 6,9 C 7,2 C 76 % 1018 hPa 0,0 l/m 4,6 km/h (1 Bft) W-SW 250 0 min 4,03 klux 0,00 min 3,0 C 6,9 C
13.03.2009 18:31 6,3 C 6,5 C 77 % 1019 hPa 0,0 l/m 0,0 km/h (0 Bft) W-SW 250 0 min 1,67 klux 0,00 min 2,6 C 6,3 C
13.03.2009 18:46 6,0 C 5,4 C 79 % 1018 hPa 0,0 l/m 0,0 km/h (0 Bft) W-SW 250 0 min 418 lux 0,00 min 2,6 C 6,0 C
13.03.2009 19:01 5,7 C 5,2 C 80 % 1018 hPa 0,0 l/m 0,0 km/h (0 Bft) W-SW 250 0 min 55 lux 0,00 min 2,5 C 5,7 C
13.03.2009 19:16 5,5 C 5,1 C 81 % 1019 hPa 0,0 l/m 0,0 km/h (0 Bft) W-SW 250 0 min 12 lux 0,00 min 2,5 C 5,5 C
13.03.2009 19:31 5,4 C 5,0 C 83 % 1018 hPa 0,0 l/m 0,0 km/h (0 Bft) W-SW 250 0 min 0 lux 0,00 min 2,7 C 5,4 C
13.03.2009 19:46 5,2 C 4,8 C 84 % 1018 hPa 0,0 l/m 0,0 km/h (0 Bft) W-SW 250 0 min 0 lux 0,00 min 2,7 C 5,2 C
13.03.2009 20:01 5,2 C 4,7 C 85 % 1018 hPa 0,0 l/m 0,0 km/h (0 Bft) W-SW 250 0 min 0 lux 0,00 min 2,9 C 5,2 C
13.03.2009 20:16 4,9 C 4,6 C 85 % 1018 hPa 0,0 l/m 0,0 km/h (0 Bft) W-SW 250 0 min 0 lux 0,00 min 2,6 C 4,9 C
13.03.2009 20:30 4,8 C 4,3 C 86 % 1018 hPa 0,0 l/m 0,0 km/h (0 Bft) W-SW 250 0 min 0 lux 0,00 min 2,7 C 4,8 C
13.03.2009 20:46 4,7 C 4,2 C 87 % 1018 hPa 0,0 l/m 0,0 km/h (0 Bft) W-SW 250 0 min 0 lux 0,00 min 2,7 C 4,7 C
13.03.2009 21:01 4,6 C 4,1 C 88 % 1018 hPa 0,0 l/m 0,0 km/h (0 Bft) W-SW 250 0 min 0 lux 0,00 min 2,8 C 4,6 C
13.03.2009 21:16 4,5 C 4,0 C 88 % 1018 hPa 0,0 l/m 0,0 km/h (0 Bft) W-SW 250 0 min 0 lux 0,00 min 2,7 C 4,5 C
13.03.2009 21:31 4,4 C 3,8 C 88 % 1018 hPa 0,0 l/m 0,0 km/h (0 Bft) W-SW 250 0 min 0 lux 0,00 min 2,6 C 4,4 C
13.03.2009 21:46 4,3 C 3,7 C 89 % 1018 hPa 0,0 l/m 0,0 km/h (0 Bft) W-SW 250 0 min 0 lux 0,00 min 2,7 C 4,3 C
13.03.2009 22:01 4,2 C 3,6 C 90 % 1018 hPa 0,0 l/m 0,0 km/h (0 Bft) W-SW 250 0 min 0 lux 0,00 min 2,7 C 4,2 C
13.03.2009 22:16 4,1 C 3,4 C 90 % 1018 hPa 0,0 l/m 0,0 km/h (0 Bft) W-SW 250 0 min 0 lux 0,00 min 2,6 C 4,1 C
13.03.2009 22:31 3,9 C 2,8 C 90 % 1018 hPa 0,0 l/m 0,0 km/h (0 Bft) W-SW 250 0 min 0 lux 0,00 min 2,4 C 3,9 C
13.03.2009 22:46 3,5 C 2,3 C 91 % 1018 hPa 0,0 l/m 0,0 km/h (0 Bft) W-SW 250 0 min 0 lux 0,00 min 2,2 C 3,5 C
13.03.2009 23:01 3,1 C 1,9 C 91 % 1018 hPa 0,0 l/m 0,0 km/h (0 Bft) W-SW 250 0 min 0 lux 0,00 min 1,8 C 3,1 C
13.03.2009 23:16 2,7 C 1,6 C 92 % 1018 hPa 0,0 l/m 0,0 km/h (0 Bft) W-SW 250 0 min 0 lux 0,00 min 1,5 C 2,7 C
13.03.2009 23:31 2,5 C 1,5 C 92 % 1018 hPa 0,0 l/m 0,0 km/h (0 Bft) W-SW 250 0 min 0 lux 0,00 min 1,3 C 2,5 C
13.03.2009 23:46 2,4 C 1,4 C 93 % 1017 hPa 0,0 l/m 0,0 km/h (0 Bft) W-SW 250 0 min 0 lux 0,00 min 1,4 C 2,4 C
13.03.2009 23:55 2,3 C 1,4 C 93 % 1017 hPa 0,0 l/m 0,0 km/h (0 Bft) W-SW 250 0 min 0 lux 0,00 min 1,3 C 2,3 C
_ Min-Zeit 07:16 07:01 14:46 00:01 - 07:16 - - - - - 23:55 02:01
Minimum _ 2,2 C 1,4 C 68 % 1017 hPa - 0,0 km/h (0 Bft) - - - - - 1,3 C -4,4 C
_ Max-Zeit 14:31 14:31 00:01 09:31 00:16 02:01 - - 13:16 14:01 00:16 10:16 18:01
Maximum _ 10,5 C 14,0 C 99 % 1020 hPa 3,0 l/m 25,5 km/h
W (4 Bft)
- - 16 min 66,7 klux 15,00 min 6,4 C 7,5 C
Durchschnitt _ 6,0 C 6,4 C 88 % 1019 hPa #3,6 l/m 9,3 km/h (2 Bft) W-SW - #6:15 h 16,5 klux #45 min. 4,1 C 3,0 C